sensor_id;sensor_type;location;lat;lon;timestamp;temperature;humidity
67748;HTU21D;54543;50.712;6.070;2022-07-10T00:01:24;14.77;64.18
67748;HTU21D;54543;50.712;6.070;2022-07-10T00:03:50;14.70;64.62
67748;HTU21D;54543;50.712;6.070;2022-07-10T00:06:16;14.62;64.74
67748;HTU21D;54543;50.712;6.070;2022-07-10T00:08:42;14.57;65.02
67748;HTU21D;54543;50.712;6.070;2022-07-10T00:11:11;14.51;65.06
67748;HTU21D;54543;50.712;6.070;2022-07-10T00:13:37;14.48;65.27
67748;HTU21D;54543;50.712;6.070;2022-07-10T00:16:03;14.43;65.66
67748;HTU21D;54543;50.712;6.070;2022-07-10T00:18:29;14.42;65.54
67748;HTU21D;54543;50.712;6.070;2022-07-10T00:20:54;14.38;65.60
67748;HTU21D;54543;50.712;6.070;2022-07-10T00:23:20;14.35;65.69
67748;HTU21D;54543;50.712;6.070;2022-07-10T00:25:46;14.30;65.81
67748;HTU21D;54543;50.712;6.070;2022-07-10T00:28:11;14.26;66.27
67748;HTU21D;54543;50.712;6.070;2022-07-10T00:30:37;14.23;66.20
67748;HTU21D;54543;50.712;6.070;2022-07-10T00:33:03;14.25;66.40
67748;HTU21D;54543;50.712;6.070;2022-07-10T00:35:29;14.24;66.30
67748;HTU21D;54543;50.712;6.070;2022-07-10T00:37:55;14.24;66.36
67748;HTU21D;54543;50.712;6.070;2022-07-10T00:40:20;14.26;66.27
67748;HTU21D;54543;50.712;6.070;2022-07-10T00:42:46;14.28;66.35
67748;HTU21D;54543;50.712;6.070;2022-07-10T00:45:12;14.27;66.31
67748;HTU21D;54543;50.712;6.070;2022-07-10T00:47:38;14.27;66.36
67748;HTU21D;54543;50.712;6.070;2022-07-10T00:50:05;14.28;66.42
67748;HTU21D;54543;50.712;6.070;2022-07-10T00:52:32;14.27;66.48
67748;HTU21D;54543;50.712;6.070;2022-07-10T00:55:01;14.25;66.59
67748;HTU21D;54543;50.712;6.070;2022-07-10T00:57:27;14.22;66.82
67748;HTU21D;54543;50.712;6.070;2022-07-10T00:59:53;14.21;66.73
67748;HTU21D;54543;50.712;6.070;2022-07-10T01:02:19;14.20;66.75
67748;HTU21D;54543;50.712;6.070;2022-07-10T01:04:45;14.18;66.87
67748;HTU21D;54543;50.712;6.070;2022-07-10T01:07:11;14.17;66.94
67748;HTU21D;54543;50.712;6.070;2022-07-10T01:09:37;14.14;67.05
67748;HTU21D;54543;50.712;6.070;2022-07-10T01:12:03;14.11;67.10
67748;HTU21D;54543;50.712;6.070;2022-07-10T01:14:30;14.07;67.31
67748;HTU21D;54543;50.712;6.070;2022-07-10T01:16:57;14.01;67.35
67748;HTU21D;54543;50.712;6.070;2022-07-10T01:19:23;13.97;67.52
67748;HTU21D;54543;50.712;6.070;2022-07-10T01:21:48;13.94;67.65
67748;HTU21D;54543;50.712;6.070;2022-07-10T01:24:14;13.90;67.68
67748;HTU21D;54543;50.712;6.070;2022-07-10T01:26:40;13.91;67.69
67748;HTU21D;54543;50.712;6.070;2022-07-10T01:29:09;13.88;67.73
67748;HTU21D;54543;50.712;6.070;2022-07-10T01:31:35;13.84;67.83
67748;HTU21D;54543;50.712;6.070;2022-07-10T01:34:02;13.82;67.96
67748;HTU21D;54543;50.712;6.070;2022-07-10T01:36:30;13.80;68.07
67748;HTU21D;54543;50.712;6.070;2022-07-10T01:38:57;13.77;68.18
67748;HTU21D;54543;50.712;6.070;2022-07-10T01:41:23;13.74;68.26
67748;HTU21D;54543;50.712;6.070;2022-07-10T01:43:50;13.73;68.30
67748;HTU21D;54543;50.712;6.070;2022-07-10T01:46:16;13.73;68.30
67748;HTU21D;54543;50.712;6.070;2022-07-10T01:48:42;13.70;68.40
67748;HTU21D;54543;50.712;6.070;2022-07-10T01:51:09;13.68;68.43
67748;HTU21D;54543;50.712;6.070;2022-07-10T01:53:36;13.66;68.56
67748;HTU21D;54543;50.712;6.070;2022-07-10T01:56:07;13.64;68.84
67748;HTU21D;54543;50.712;6.070;2022-07-10T01:58:33;13.59;68.99
67748;HTU21D;54543;50.712;6.070;2022-07-10T02:01:00;13.53;69.04
67748;HTU21D;54543;50.712;6.070;2022-07-10T02:03:25;13.52;69.12
67748;HTU21D;54543;50.712;6.070;2022-07-10T02:06:10;13.53;69.26
67748;HTU21D;54543;50.712;6.070;2022-07-10T02:08:36;13.56;69.34
67748;HTU21D;54543;50.712;6.070;2022-07-10T02:11:02;13.60;69.39
67748;HTU21D;54543;50.712;6.070;2022-07-10T02:13:27;13.63;69.41
67748;HTU21D;54543;50.712;6.070;2022-07-10T02:15:54;13.66;69.36
67748;HTU21D;54543;50.712;6.070;2022-07-10T02:18:21;13.67;69.33
67748;HTU21D;54543;50.712;6.070;2022-07-10T02:20:46;13.66;69.30
67748;HTU21D;54543;50.712;6.070;2022-07-10T02:23:12;13.63;69.39
67748;HTU21D;54543;50.712;6.070;2022-07-10T02:25:38;13.61;69.48
67748;HTU21D;54543;50.712;6.070;2022-07-10T02:28:04;13.58;69.58
67748;HTU21D;54543;50.712;6.070;2022-07-10T02:30:29;13.58;69.71
67748;HTU21D;54543;50.712;6.070;2022-07-10T02:32:55;13.56;69.68
67748;HTU21D;54543;50.712;6.070;2022-07-10T02:35:21;13.56;69.82
67748;HTU21D;54543;50.712;6.070;2022-07-10T02:37:47;13.59;69.74
67748;HTU21D;54543;50.712;6.070;2022-07-10T02:40:12;13.59;69.86
67748;HTU21D;54543;50.712;6.070;2022-07-10T02:42:38;13.59;69.80
67748;HTU21D;54543;50.712;6.070;2022-07-10T02:45:04;13.61;69.65
67748;HTU21D;54543;50.712;6.070;2022-07-10T02:47:29;13.63;69.78
67748;HTU21D;54543;50.712;6.070;2022-07-10T02:49:55;13.66;69.68
67748;HTU21D;54543;50.712;6.070;2022-07-10T02:52:21;13.68;69.61
67748;HTU21D;54543;50.712;6.070;2022-07-10T02:54:46;13.70;69.66
67748;HTU21D;54543;50.712;6.070;2022-07-10T02:57:12;13.74;69.70
67748;HTU21D;54543;50.712;6.070;2022-07-10T02:59:38;13.73;69.70
67748;HTU21D;54543;50.712;6.070;2022-07-10T03:02:04;13.73;69.75
67748;HTU21D;54543;50.712;6.070;2022-07-10T03:04:29;13.75;69.80
67748;HTU21D;54543;50.712;6.070;2022-07-10T03:06:55;13.75;69.93
67748;HTU21D;54543;50.712;6.070;2022-07-10T03:09:20;13.74;69.92
67748;HTU21D;54543;50.712;6.070;2022-07-10T03:11:46;13.68;70.17
67748;HTU21D;54543;50.712;6.070;2022-07-10T03:14:12;13.64;70.19
67748;HTU21D;54543;50.712;6.070;2022-07-10T03:16:37;13.63;70.38
67748;HTU21D;54543;50.712;6.070;2022-07-10T03:19:03;13.61;70.43
67748;HTU21D;54543;50.712;6.070;2022-07-10T03:21:29;13.61;70.44
67748;HTU21D;54543;50.712;6.070;2022-07-10T03:23:56;13.63;70.46
67748;HTU21D;54543;50.712;6.070;2022-07-10T03:26:21;13.64;70.49
67748;HTU21D;54543;50.712;6.070;2022-07-10T03:28:47;13.65;70.45
67748;HTU21D;54543;50.712;6.070;2022-07-10T03:31:13;13.65;70.52
67748;HTU21D;54543;50.712;6.070;2022-07-10T03:33:38;13.69;70.43
67748;HTU21D;54543;50.712;6.070;2022-07-10T03:36:04;13.74;70.31
67748;HTU21D;54543;50.712;6.070;2022-07-10T03:38:30;13.78;70.19
67748;HTU21D;54543;50.712;6.070;2022-07-10T03:40:55;13.84;70.21
67748;HTU21D;54543;50.712;6.070;2022-07-10T03:43:21;13.85;70.13
67748;HTU21D;54543;50.712;6.070;2022-07-10T03:45:47;13.89;70.07
67748;HTU21D;54543;50.712;6.070;2022-07-10T03:48:12;13.93;70.20
67748;HTU21D;54543;50.712;6.070;2022-07-10T03:50:38;13.93;70.24
67748;HTU21D;54543;50.712;6.070;2022-07-10T03:53:03;13.94;70.27
67748;HTU21D;54543;50.712;6.070;2022-07-10T03:55:29;13.95;70.17
67748;HTU21D;54543;50.712;6.070;2022-07-10T03:57:54;13.99;70.20
67748;HTU21D;54543;50.712;6.070;2022-07-10T04:00:21;13.98;70.13
67748;HTU21D;54543;50.712;6.070;2022-07-10T04:02:48;13.99;70.18
67748;HTU21D;54543;50.712;6.070;2022-07-10T04:05:19;14.01;70.18
67748;HTU21D;54543;50.712;6.070;2022-07-10T04:07:44;14.03;70.32
67748;HTU21D;54543;50.712;6.070;2022-07-10T04:10:10;14.03;70.14
67748;HTU21D;54543;50.712;6.070;2022-07-10T04:12:36;14.05;70.13
67748;HTU21D;54543;50.712;6.070;2022-07-10T04:15:01;14.05;70.13
67748;HTU21D;54543;50.712;6.070;2022-07-10T04:17:27;14.05;70.16
67748;HTU21D;54543;50.712;6.070;2022-07-10T04:19:53;14.08;70.15
67748;HTU21D;54543;50.712;6.070;2022-07-10T04:22:19;14.07;70.26
67748;HTU21D;54543;50.712;6.070;2022-07-10T04:24:44;14.06;70.33
67748;HTU21D;54543;50.712;6.070;2022-07-10T04:27:10;14.08;70.34
67748;HTU21D;54543;50.712;6.070;2022-07-10T04:29:35;14.06;70.46
67748;HTU21D;54543;50.712;6.070;2022-07-10T04:32:01;14.09;70.42
67748;HTU21D;54543;50.712;6.070;2022-07-10T04:34:26;14.11;70.41
67748;HTU21D;54543;50.712;6.070;2022-07-10T04:36:52;14.13;70.41
67748;HTU21D;54543;50.712;6.070;2022-07-10T04:39:17;14.15;70.49
67748;HTU21D;54543;50.712;6.070;2022-07-10T04:41:43;14.18;70.42
67748;HTU21D;54543;50.712;6.070;2022-07-10T04:44:09;14.18;70.68
67748;HTU21D;54543;50.712;6.070;2022-07-10T04:46:34;14.19;70.65
67748;HTU21D;54543;50.712;6.070;2022-07-10T04:49:00;14.20;70.84
67748;HTU21D;54543;50.712;6.070;2022-07-10T04:51:25;14.19;71.13
67748;HTU21D;54543;50.712;6.070;2022-07-10T04:53:52;14.13;71.13
67748;HTU21D;54543;50.712;6.070;2022-07-10T04:56:17;14.11;71.16
67748;HTU21D;54543;50.712;6.070;2022-07-10T04:58:43;14.13;71.06
67748;HTU21D;54543;50.712;6.070;2022-07-10T05:01:09;14.15;71.03
67748;HTU21D;54543;50.712;6.070;2022-07-10T05:03:34;14.17;70.82
67748;HTU21D;54543;50.712;6.070;2022-07-10T05:06:00;14.17;70.87
67748;HTU21D;54543;50.712;6.070;2022-07-10T05:08:25;14.23;70.89
67748;HTU21D;54543;50.712;6.070;2022-07-10T05:10:51;14.27;70.81
67748;HTU21D;54543;50.712;6.070;2022-07-10T05:13:16;14.35;70.75
67748;HTU21D;54543;50.712;6.070;2022-07-10T05:15:42;14.42;70.58
67748;HTU21D;54543;50.712;6.070;2022-07-10T05:18:08;14.47;70.50
67748;HTU21D;54543;50.712;6.070;2022-07-10T05:20:34;14.49;70.48
67748;HTU21D;54543;50.712;6.070;2022-07-10T05:23:00;14.54;70.35
67748;HTU21D;54543;50.712;6.070;2022-07-10T05:25:26;14.63;70.20
67748;HTU21D;54543;50.712;6.070;2022-07-10T05:27:55;14.73;70.05
67748;HTU21D;54543;50.712;6.070;2022-07-10T05:30:21;14.83;69.87
67748;HTU21D;54543;50.712;6.070;2022-07-10T05:32:46;14.92;69.79
67748;HTU21D;54543;50.712;6.070;2022-07-10T05:35:13;14.96;69.49
67748;HTU21D;54543;50.712;6.070;2022-07-10T05:37:39;14.98;69.49
67748;HTU21D;54543;50.712;6.070;2022-07-10T05:40:05;14.98;69.71
67748;HTU21D;54543;50.712;6.070;2022-07-10T05:42:31;15.00;69.71
67748;HTU21D;54543;50.712;6.070;2022-07-10T05:44:56;15.06;69.60
67748;HTU21D;54543;50.712;6.070;2022-07-10T05:47:22;15.12;69.54
67748;HTU21D;54543;50.712;6.070;2022-07-10T05:49:48;15.15;69.33
67748;HTU21D;54543;50.712;6.070;2022-07-10T05:52:13;15.19;69.34
67748;HTU21D;54543;50.712;6.070;2022-07-10T05:54:39;15.27;69.63
67748;HTU21D;54543;50.712;6.070;2022-07-10T05:57:05;15.37;69.24
67748;HTU21D;54543;50.712;6.070;2022-07-10T05:59:33;15.42;69.01
67748;HTU21D;54543;50.712;6.070;2022-07-10T06:02:00;15.49;68.87
67748;HTU21D;54543;50.712;6.070;2022-07-10T06:04:26;15.56;68.84
67748;HTU21D;54543;50.712;6.070;2022-07-10T06:06:51;15.62;68.59
67748;HTU21D;54543;50.712;6.070;2022-07-10T06:09:18;15.68;68.85
67748;HTU21D;54543;50.712;6.070;2022-07-10T06:11:43;15.77;68.17
67748;HTU21D;54543;50.712;6.070;2022-07-10T06:14:12;15.77;68.14
67748;HTU21D;54543;50.712;6.070;2022-07-10T06:16:37;15.78;68.08
67748;HTU21D;54543;50.712;6.070;2022-07-10T06:19:03;15.77;68.17
67748;HTU21D;54543;50.712;6.070;2022-07-10T06:21:29;15.77;68.07
67748;HTU21D;54543;50.712;6.070;2022-07-10T06:23:54;15.80;68.13
67748;HTU21D;54543;50.712;6.070;2022-07-10T06:26:20;15.82;68.01
67748;HTU21D;54543;50.712;6.070;2022-07-10T06:28:45;15.85;68.01
67748;HTU21D;54543;50.712;6.070;2022-07-10T06:31:11;15.85;67.65
67748;HTU21D;54543;50.712;6.070;2022-07-10T06:33:37;15.85;67.84
67748;HTU21D;54543;50.712;6.070;2022-07-10T06:36:03;15.90;67.55
67748;HTU21D;54543;50.712;6.070;2022-07-10T06:38:29;15.83;67.87
67748;HTU21D;54543;50.712;6.070;2022-07-10T06:40:54;15.78;67.78
67748;HTU21D;54543;50.712;6.070;2022-07-10T06:43:19;15.71;67.78
67748;HTU21D;54543;50.712;6.070;2022-07-10T06:45:45;15.80;68.14
67748;HTU21D;54543;50.712;6.070;2022-07-10T06:48:11;15.83;67.80
67748;HTU21D;54543;50.712;6.070;2022-07-10T06:50:37;15.88;67.52
67748;HTU21D;54543;50.712;6.070;2022-07-10T06:53:03;15.93;67.35
67748;HTU21D;54543;50.712;6.070;2022-07-10T06:55:29;15.93;67.30
67748;HTU21D;54543;50.712;6.070;2022-07-10T06:57:55;15.90;67.43
67748;HTU21D;54543;50.712;6.070;2022-07-10T07:00:21;15.87;67.77
67748;HTU21D;54543;50.712;6.070;2022-07-10T07:02:47;15.90;67.83
67748;HTU21D;54543;50.712;6.070;2022-07-10T07:05:13;15.98;67.47
67748;HTU21D;54543;50.712;6.070;2022-07-10T07:07:39;15.97;67.69
67748;HTU21D;54543;50.712;6.070;2022-07-10T07:10:06;16.06;67.44
67748;HTU21D;54543;50.712;6.070;2022-07-10T07:12:32;16.12;67.35
67748;HTU21D;54543;50.712;6.070;2022-07-10T07:14:57;16.15;67.97
67748;HTU21D;54543;50.712;6.070;2022-07-10T07:17:23;16.33;67.88
67748;HTU21D;54543;50.712;6.070;2022-07-10T07:19:51;16.44;67.01
67748;HTU21D;54543;50.712;6.070;2022-07-10T07:22:36;16.48;66.83
67748;HTU21D;54543;50.712;6.070;2022-07-10T07:25:20;16.50;66.92
67748;HTU21D;54543;50.712;6.070;2022-07-10T07:27:46;16.55;66.89
67748;HTU21D;54543;50.712;6.070;2022-07-10T07:30:13;16.57;66.81
67748;HTU21D;54543;50.712;6.070;2022-07-10T07:32:43;16.57;66.78
67748;HTU21D;54543;50.712;6.070;2022-07-10T07:35:10;16.54;66.53
67748;HTU21D;54543;50.712;6.070;2022-07-10T07:37:40;16.54;67.03
67748;HTU21D;54543;50.712;6.070;2022-07-10T07:40:11;16.63;66.99
67748;HTU21D;54543;50.712;6.070;2022-07-10T07:42:37;16.81;66.52
67748;HTU21D;54543;50.712;6.070;2022-07-10T07:45:04;17.04;66.66
67748;HTU21D;54543;50.712;6.070;2022-07-10T07:47:31;17.22;65.84
67748;HTU21D;54543;50.712;6.070;2022-07-10T07:49:57;17.40;65.43
67748;HTU21D;54543;50.712;6.070;2022-07-10T07:52:26;17.52;65.15
67748;HTU21D;54543;50.712;6.070;2022-07-10T07:54:51;17.55;64.56
67748;HTU21D;54543;50.712;6.070;2022-07-10T07:57:17;17.59;64.56
67748;HTU21D;54543;50.712;6.070;2022-07-10T07:59:43;17.56;64.57
67748;HTU21D;54543;50.712;6.070;2022-07-10T08:02:08;17.52;64.56
67748;HTU21D;54543;50.712;6.070;2022-07-10T08:04:34;17.55;64.63
67748;HTU21D;54543;50.712;6.070;2022-07-10T08:07:00;17.61;64.60
67748;HTU21D;54543;50.712;6.070;2022-07-10T08:09:26;17.65;64.33
67748;HTU21D;54543;50.712;6.070;2022-07-10T08:11:52;17.64;64.40
67748;HTU21D;54543;50.712;6.070;2022-07-10T08:14:17;17.61;64.41
67748;HTU21D;54543;50.712;6.070;2022-07-10T08:16:43;17.53;64.49
67748;HTU21D;54543;50.712;6.070;2022-07-10T08:19:09;17.44;64.85
67748;HTU21D;54543;50.712;6.070;2022-07-10T08:21:34;17.37;65.08
67748;HTU21D;54543;50.712;6.070;2022-07-10T08:24:00;17.36;65.24
67748;HTU21D;54543;50.712;6.070;2022-07-10T08:26:26;17.47;64.91
67748;HTU21D;54543;50.712;6.070;2022-07-10T08:28:52;17.56;64.41
67748;HTU21D;54543;50.712;6.070;2022-07-10T08:31:17;17.54;64.57
67748;HTU21D;54543;50.712;6.070;2022-07-10T08:33:43;17.56;64.65
67748;HTU21D;54543;50.712;6.070;2022-07-10T08:36:09;17.60;64.52
67748;HTU21D;54543;50.712;6.070;2022-07-10T08:38:34;17.66;64.19
67748;HTU21D;54543;50.712;6.070;2022-07-10T08:41:00;17.63;64.30
67748;HTU21D;54543;50.712;6.070;2022-07-10T08:43:28;17.64;64.76
67748;HTU21D;54543;50.712;6.070;2022-07-10T08:45:54;17.72;64.66
67748;HTU21D;54543;50.712;6.070;2022-07-10T08:48:23;17.83;64.19
67748;HTU21D;54543;50.712;6.070;2022-07-10T08:50:53;17.92;63.90
67748;HTU21D;54543;50.712;6.070;2022-07-10T08:53:29;18.05;63.48
67748;HTU21D;54543;50.712;6.070;2022-07-10T08:55:59;18.15;63.23
67748;HTU21D;54543;50.712;6.070;2022-07-10T08:58:26;18.21;62.97
67748;HTU21D;54543;50.712;6.070;2022-07-10T09:00:52;18.21;62.93
67748;HTU21D;54543;50.712;6.070;2022-07-10T09:03:18;18.14;63.00
67748;HTU21D;54543;50.712;6.070;2022-07-10T09:05:44;18.11;62.98
67748;HTU21D;54543;50.712;6.070;2022-07-10T09:08:27;18.15;63.10
67748;HTU21D;54543;50.712;6.070;2022-07-10T09:13:53;18.38;63.13
67748;HTU21D;54543;50.712;6.070;2022-07-10T09:16:30;18.47;62.53
67748;HTU21D;54543;50.712;6.070;2022-07-10T09:18:56;18.54;62.41
67748;HTU21D;54543;50.712;6.070;2022-07-10T09:21:22;18.59;61.89
67748;HTU21D;54543;50.712;6.070;2022-07-10T09:23:49;18.57;61.89
67748;HTU21D;54543;50.712;6.070;2022-07-10T09:26:15;18.54;61.64
67748;HTU21D;54543;50.712;6.070;2022-07-10T09:28:40;18.49;61.73
67748;HTU21D;54543;50.712;6.070;2022-07-10T09:31:06;18.48;62.08
67748;HTU21D;54543;50.712;6.070;2022-07-10T09:33:32;18.52;61.86
67748;HTU21D;54543;50.712;6.070;2022-07-10T09:36:00;18.52;61.95
67748;HTU21D;54543;50.712;6.070;2022-07-10T09:41:27;18.56;61.54
67748;HTU21D;54543;50.712;6.070;2022-07-10T09:43:58;18.58;61.88
67748;HTU21D;54543;50.712;6.070;2022-07-10T09:46:37;18.65;61.78
67748;HTU21D;54543;50.712;6.070;2022-07-10T09:49:14;18.76;60.80
67748;HTU21D;54543;50.712;6.070;2022-07-10T09:51:41;18.85;61.46
67748;HTU21D;54543;50.712;6.070;2022-07-10T09:54:08;19.05;60.99
67748;HTU21D;54543;50.712;6.070;2022-07-10T09:56:48;19.22;60.17
67748;HTU21D;54543;50.712;6.070;2022-07-10T09:59:17;19.35;60.26
67748;HTU21D;54543;50.712;6.070;2022-07-10T10:01:51;19.47;60.28
67748;HTU21D;54543;50.712;6.070;2022-07-10T10:04:18;19.67;59.05
67748;HTU21D;54543;50.712;6.070;2022-07-10T10:06:56;19.70;58.86
67748;HTU21D;54543;50.712;6.070;2022-07-10T10:09:26;19.67;59.56
67748;HTU21D;54543;50.712;6.070;2022-07-10T10:14:44;19.50;59.77
67748;HTU21D;54543;50.712;6.070;2022-07-10T10:17:10;19.39;60.02
67748;HTU21D;54543;50.712;6.070;2022-07-10T10:19:38;19.36;60.19
67748;HTU21D;54543;50.712;6.070;2022-07-10T10:22:24;19.43;59.64
67748;HTU21D;54543;50.712;6.070;2022-07-10T10:24:52;19.36;59.56
67748;HTU21D;54543;50.712;6.070;2022-07-10T10:27:18;19.39;60.21
67748;HTU21D;54543;50.712;6.070;2022-07-10T10:29:46;19.54;60.28
67748;HTU21D;54543;50.712;6.070;2022-07-10T10:32:13;19.69;59.91
67748;HTU21D;54543;50.712;6.070;2022-07-10T10:34:43;19.77;59.64
67748;HTU21D;54543;50.712;6.070;2022-07-10T10:39:54;19.88;59.47
67748;HTU21D;54543;50.712;6.070;2022-07-10T10:42:41;19.98;58.86
67748;HTU21D;54543;50.712;6.070;2022-07-10T10:45:31;20.11;58.07
67748;HTU21D;54543;50.712;6.070;2022-07-10T10:47:58;20.19;58.90
67748;HTU21D;54543;50.712;6.070;2022-07-10T10:53:02;20.47;58.48
67748;HTU21D;54543;50.712;6.070;2022-07-10T10:55:27;20.58;57.73
67748;HTU21D;54543;50.712;6.070;2022-07-10T10:58:12;20.44;56.53
67748;HTU21D;54543;50.712;6.070;2022-07-10T11:00:39;20.39;58.37
67748;HTU21D;54543;50.712;6.070;2022-07-10T11:05:40;20.27;58.70
67748;HTU21D;54543;50.712;6.070;2022-07-10T11:08:09;20.37;58.67
67748;HTU21D;54543;50.712;6.070;2022-07-10T11:10:44;20.53;58.28
67748;HTU21D;54543;50.712;6.070;2022-07-10T11:13:17;20.77;57.64
67748;HTU21D;54543;50.712;6.070;2022-07-10T11:15:45;21.05;57.43
67748;HTU21D;54543;50.712;6.070;2022-07-10T11:20:44;21.72;55.87
67748;HTU21D;54543;50.712;6.070;2022-07-10T11:26:04;22.01;54.30
67748;HTU21D;54543;50.712;6.070;2022-07-10T11:28:58;22.16;53.65
67748;HTU21D;54543;50.712;6.070;2022-07-10T11:31:26;22.24;54.11
67748;HTU21D;54543;50.712;6.070;2022-07-10T11:33:54;22.37;54.49
67748;HTU21D;54543;50.712;6.070;2022-07-10T11:36:24;22.60;53.12
67748;HTU21D;54543;50.712;6.070;2022-07-10T11:39:01;22.51;52.01
67748;HTU21D;54543;50.712;6.070;2022-07-10T11:41:27;22.27;54.08
67748;HTU21D;54543;50.712;6.070;2022-07-10T11:43:55;22.19;54.48
67748;HTU21D;54543;50.712;6.070;2022-07-10T11:46:22;22.27;54.08
67748;HTU21D;54543;50.712;6.070;2022-07-10T11:48:50;22.25;53.46
67748;HTU21D;54543;50.712;6.070;2022-07-10T11:54:11;22.31;51.52
67748;HTU21D;54543;50.712;6.070;2022-07-10T11:56:42;22.24;54.27
67748;HTU21D;54543;50.712;6.070;2022-07-10T11:59:13;22.37;54.29
67748;HTU21D;54543;50.712;6.070;2022-07-10T12:01:46;22.52;53.08
67748;HTU21D;54543;50.712;6.070;2022-07-10T12:04:13;22.54;53.46
67748;HTU21D;54543;50.712;6.070;2022-07-10T12:06:42;22.40;53.83
67748;HTU21D;54543;50.712;6.070;2022-07-10T12:09:11;22.33;53.54
67748;HTU21D;54543;50.712;6.070;2022-07-10T12:11:37;22.27;54.47
67748;HTU21D;54543;50.712;6.070;2022-07-10T12:14:24;22.37;53.48
67748;HTU21D;54543;50.712;6.070;2022-07-10T12:16:51;22.48;54.57
67748;HTU21D;54543;50.712;6.070;2022-07-10T12:19:23;22.68;53.49
67748;HTU21D;54543;50.712;6.070;2022-07-10T12:21:49;22.87;53.65
67748;HTU21D;54543;50.712;6.070;2022-07-10T12:24:18;22.99;52.29
67748;HTU21D;54543;50.712;6.070;2022-07-10T12:26:47;22.88;52.44
67748;HTU21D;54543;50.712;6.070;2022-07-10T12:29:25;22.56;50.74
67748;HTU21D;54543;50.712;6.070;2022-07-10T12:31:52;22.16;53.27
67748;HTU21D;54543;50.712;6.070;2022-07-10T12:34:19;21.64;54.39
67748;HTU21D;54543;50.712;6.070;2022-07-10T12:36:52;21.29;54.83
67748;HTU21D;54543;50.712;6.070;2022-07-10T12:39:20;21.05;55.61
67748;HTU21D;54543;50.712;6.070;2022-07-10T12:42:02;21.00;55.16
67748;HTU21D;54543;50.712;6.070;2022-07-10T12:44:39;21.01;55.36
67748;HTU21D;54543;50.712;6.070;2022-07-10T12:47:11;21.18;55.12
67748;HTU21D;54543;50.712;6.070;2022-07-10T12:49:57;21.33;55.38
67748;HTU21D;54543;50.712;6.070;2022-07-10T12:52:34;21.50;55.31
67748;HTU21D;54543;50.712;6.070;2022-07-10T13:00:25;21.58;54.76
67748;HTU21D;54543;50.712;6.070;2022-07-10T13:03:08;21.32;55.68
67748;HTU21D;54543;50.712;6.070;2022-07-10T13:08:06;20.69;56.89
67748;HTU21D;54543;50.712;6.070;2022-07-10T13:10:36;20.63;56.98
67748;HTU21D;54543;50.712;6.070;2022-07-10T13:13:03;20.65;56.97
67748;HTU21D;54543;50.712;6.070;2022-07-10T13:15:30;20.70;56.77
67748;HTU21D;54543;50.712;6.070;2022-07-10T13:17:56;20.76;56.52
67748;HTU21D;54543;50.712;6.070;2022-07-10T13:20:23;20.86;56.43
67748;HTU21D;54543;50.712;6.070;2022-07-10T13:22:49;21.02;56.48
67748;HTU21D;54543;50.712;6.070;2022-07-10T13:25:14;21.17;56.07
67748;HTU21D;54543;50.712;6.070;2022-07-10T13:27:40;21.31;56.18
67748;HTU21D;54543;50.712;6.070;2022-07-10T13:30:07;21.44;55.94
67748;HTU21D;54543;50.712;6.070;2022-07-10T13:32:33;21.57;55.75
67748;HTU21D;54543;50.712;6.070;2022-07-10T13:34:59;21.82;55.19
67748;HTU21D;54543;50.712;6.070;2022-07-10T13:37:25;22.09;54.89
67748;HTU21D;54543;50.712;6.070;2022-07-10T13:39:50;22.14;54.73
67748;HTU21D;54543;50.712;6.070;2022-07-10T13:42:16;22.22;54.48
67748;HTU21D;54543;50.712;6.070;2022-07-10T13:44:41;22.22;54.18
67748;HTU21D;54543;50.712;6.070;2022-07-10T13:47:07;22.16;54.61
67748;HTU21D;54543;50.712;6.070;2022-07-10T13:49:33;22.09;54.78
67748;HTU21D;54543;50.712;6.070;2022-07-10T13:51:58;22.04;54.75
67748;HTU21D;54543;50.712;6.070;2022-07-10T13:54:24;21.99;54.54
67748;HTU21D;54543;50.712;6.070;2022-07-10T13:56:49;21.97;54.33
67748;HTU21D;54543;50.712;6.070;2022-07-10T13:59:16;21.84;54.34
67748;HTU21D;54543;50.712;6.070;2022-07-10T14:01:41;21.73;54.67
67748;HTU21D;54543;50.712;6.070;2022-07-10T14:04:07;21.60;54.81
67748;HTU21D;54543;50.712;6.070;2022-07-10T14:06:33;21.50;54.84
67748;HTU21D;54543;50.712;6.070;2022-07-10T14:08:59;21.39;55.21
67748;HTU21D;54543;50.712;6.070;2022-07-10T14:11:25;21.34;55.58
67748;HTU21D;54543;50.712;6.070;2022-07-10T14:13:50;21.31;55.82
67748;HTU21D;54543;50.712;6.070;2022-07-10T14:16:16;21.32;55.83
67748;HTU21D;54543;50.712;6.070;2022-07-10T14:18:41;21.34;55.64
67748;HTU21D;54543;50.712;6.070;2022-07-10T14:21:11;21.34;55.20
67748;HTU21D;54543;50.712;6.070;2022-07-10T14:23:39;21.25;55.77
67748;HTU21D;54543;50.712;6.070;2022-07-10T14:26:07;21.11;56.16
67748;HTU21D;54543;50.712;6.070;2022-07-10T14:28:33;21.08;56.41
67748;HTU21D;54543;50.712;6.070;2022-07-10T14:31:01;21.17;56.45
67748;HTU21D;54543;50.712;6.070;2022-07-10T14:33:30;21.36;56.42
67748;HTU21D;54543;50.712;6.070;2022-07-10T14:35:55;21.57;56.03
67748;HTU21D;54543;50.712;6.070;2022-07-10T14:38:21;21.78;55.60
67748;HTU21D;54543;50.712;6.070;2022-07-10T14:40:46;21.89;55.63
67748;HTU21D;54543;50.712;6.070;2022-07-10T14:43:12;22.14;55.78
67748;HTU21D;54543;50.712;6.070;2022-07-10T14:45:38;22.28;55.19
67748;HTU21D;54543;50.712;6.070;2022-07-10T14:48:04;22.41;54.52
67748;HTU21D;54543;50.712;6.070;2022-07-10T14:50:29;22.56;54.70
67748;HTU21D;54543;50.712;6.070;2022-07-10T14:52:55;22.58;54.84
67748;HTU21D;54543;50.712;6.070;2022-07-10T14:55:21;22.58;54.87
67748;HTU21D;54543;50.712;6.070;2022-07-10T14:57:46;22.66;54.84
67748;HTU21D;54543;50.712;6.070;2022-07-10T15:00:14;22.84;55.60
67748;HTU21D;54543;50.712;6.070;2022-07-10T15:02:39;23.32;57.45
67748;HTU21D;54543;50.712;6.070;2022-07-10T15:05:05;23.89;57.03
67748;HTU21D;54543;50.712;6.070;2022-07-10T15:07:32;24.43;54.27
67748;HTU21D;54543;50.712;6.070;2022-07-10T15:09:57;24.58;53.56
67748;HTU21D;54543;50.712;6.070;2022-07-10T15:12:23;24.50;52.70
67748;HTU21D;54543;50.712;6.070;2022-07-10T15:14:48;24.36;52.62
67748;HTU21D;54543;50.712;6.070;2022-07-10T15:17:14;24.17;52.53
67748;HTU21D;54543;50.712;6.070;2022-07-10T15:19:40;24.04;52.56
67748;HTU21D;54543;50.712;6.070;2022-07-10T15:22:05;23.91;52.62
67748;HTU21D;54543;50.712;6.070;2022-07-10T15:24:31;23.71;52.78
67748;HTU21D;54543;50.712;6.070;2022-07-10T15:26:56;23.46;53.05
67748;HTU21D;54543;50.712;6.070;2022-07-10T15:29:22;23.21;53.41
67748;HTU21D;54543;50.712;6.070;2022-07-10T15:31:53;23.02;53.65
67748;HTU21D;54543;50.712;6.070;2022-07-10T15:34:19;22.96;54.00
67748;HTU21D;54543;50.712;6.070;2022-07-10T15:36:44;22.87;53.89
67748;HTU21D;54543;50.712;6.070;2022-07-10T15:39:12;22.77;54.23
67748;HTU21D;54543;50.712;6.070;2022-07-10T15:41:38;22.75;54.04
67748;HTU21D;54543;50.712;6.070;2022-07-10T15:44:05;22.76;54.33
67748;HTU21D;54543;50.712;6.070;2022-07-10T15:46:31;22.88;54.39
67748;HTU21D;54543;50.712;6.070;2022-07-10T15:48:56;23.01;53.58